Terminal Aerodrome Forecast
Issued by NWS

Home | Current Version | Previous Version | Text Only | Print | Product List | Glossary On
Versions: 1 2 3 4 5 6 7 8 9 10 11 12 13 14 15 16
000
FTUS42 TJSJ 191800 CCB
TAFJMZ
TAF COR
TJMZ 191807Z 1918/2018 24010KT P6SM VCSH SCT025 BKN040
      TEMPO 1918/1922 VRB12G24KT 2SM +SHRA BKN022
     FM192230 08007KT P6SM FEW025 SCT050 BKN080
     FM200300 06004KT P6SM FEW030
     FM201450 23006KT P6SM SCT030=

USA.gov is the U.S. government's official web portal to all federal, state and local government web resources and services.